Time;durP1;ratioP1;P1;durP2;ratioP2;P2;SDS_P1;SDS_P2;PMS_P1;PMS_P2;Temp;Humidity;BMP_temperature;BMP_pressure;BME280_temperature;BME280_humidity;BME280_pressure;Samples;Min_cycle;Max_cycle;Signal;HPM_P1;HPM_P2
2022/12/15 00:39:23;;;;;;;18.70;12.35;;;-1.40;99.90;;;;;;5046692;28;20048;-72
2022/12/15 00:41:49;;;;;;;15.80;12.88;;;-1.50;99.90;;;;;;5043465;28;20041;-71
2022/12/15 00:44:15;;;;;;;19.08;11.00;;;-1.40;99.90;;;;;;5047948;28;20415;-72
2022/12/15 00:46:55;;;;;;;15.20;10.70;;;-1.40;99.90;;;;;;5044792;28;20408;-71
2022/12/15 01:22:34;;;;;;;16.77;11.35;;;-1.80;99.90;;;;;;5050187;28;20059;-73
2022/12/15 01:25:00;;;;;;;15.20;12.95;;;-0.10;99.90;;;;;;5049284;28;20056;-73
2022/12/15 01:27:26;;;;;;;18.05;12.20;;;-0.20;99.90;;;;;;5050652;28;20045;-71
2022/12/15 01:29:51;;;;;;;16.92;12.95;;;-1.80;99.90;;;;;;5043577;28;20047;-72
2022/12/15 01:32:17;;;;;;;15.73;11.90;;;-1.80;99.90;;;;;;5058010;28;20044;-73
2022/12/15 01:34:43;;;;;;;19.85;12.73;;;-0.90;99.90;;;;;;5038981;28;20045;-71
2022/12/15 01:37:08;;;;;;;22.00;13.05;;;-0.80;99.90;;;;;;5049143;28;20056;-74
2022/12/15 01:42:18;;;;;;;14.77;11.70;;;-1.80;99.90;;;;;;5037701;28;20576;-72
2022/12/15 01:44:49;;;;;;;15.13;13.32;;;-1.80;99.90;;;;;;5052993;28;20044;-73
2022/12/15 01:47:15;;;;;;;18.83;12.93;;;-0.90;99.90;;;;;;5080523;28;20059;-72
2022/12/15 01:49:46;;;;;;;17.10;14.05;;;-1.80;99.90;;;;;;5040039;28;20052;-72
2022/12/15 01:52:15;;;;;;;14.63;12.63;;;-1.30;99.90;;;;;;5051919;28;20059;-73
2022/12/15 01:54:52;;;;;;;13.95;11.13;;;-1.60;99.90;;;;;;5043641;28;20049;-72
2022/12/15 01:57:23;;;;;;;14.85;11.23;;;-1.50;99.90;;;;;;5042249;28;20396;-73
2022/12/15 01:59:56;;;;;;;14.40;11.45;;;-1.40;99.90;;;;;;5074413;28;20049;-72
2022/12/15 02:02:25;;;;;;;15.52;11.05;;;-1.40;99.90;;;;;;5042025;28;20044;-71
2022/12/15 02:04:55;;;;;;;16.58;12.23;;;-1.90;99.90;;;;;;5046444;28;20425;-72
2022/12/15 02:07:21;;;;;;;17.17;11.10;;;-1.20;99.90;;;;;;5041702;28;20053;-73
2022/12/15 02:09:49;;;;;;;14.27;9.93;;;-1.30;99.90;;;;;;5048540;28;20223;-73
2022/12/15 02:12:31;;;;;;;13.95;11.25;;;-1.20;99.90;;;;;;5050125;28;20045;-72
2022/12/15 02:15:09;;;;;;;13.05;10.45;;;-1.10;99.90;;;;;;5047433;28;20912;-72
2022/12/15 02:17:50;;;;;;;13.45;11.50;;;-0.90;99.90;;;;;;5049493;28;20075;-71
2022/12/15 02:20:31;;;;;;;15.98;9.73;;;-1.30;99.90;;;;;;5040386;28;20053;-72
2022/12/15 02:23:26;;;;;;;12.50;8.85;;;-1.30;99.90;;;;;;5038058;28;20408;-71
2022/12/15 02:26:22;;;;;;;13.18;10.30;;;-1.30;99.90;;;;;;5037470;28;20509;-71
2022/12/15 02:28:47;;;;;;;11.80;9.65;;;-1.30;99.90;;;;;;5052845;28;20152;-72
2022/12/15 02:34:16;;;;;;;15.25;10.98;;;-1.40;99.90;;;;;;5039261;28;20136;-71
2022/12/15 02:36:47;;;;;;;15.40;12.20;;;-0.50;99.90;;;;;;5047494;28;20818;-72
2022/12/15 02:39:14;;;;;;;16.05;11.38;;;-1.40;99.90;;;;;;5050460;28;20043;-71
2022/12/15 02:41:42;;;;;;;15.40;11.52;;;-1.50;99.90;;;;;;5046044;28;20056;-71
2022/12/15 02:44:10;;;;;;;13.50;12.05;;;-1.50;99.90;;;;;;5057478;28;20052;-72
2022/12/15 02:46:54;;;;;;;15.13;11.10;;;-0.50;99.90;;;;;;5054954;28;20136;-72
2022/12/15 02:49:36;;;;;;;12.13;9.02;;;-1.50;99.90;;;;;;5047978;28;20079;-72
2022/12/15 02:52:56;;;;;;;12.90;10.38;;;-1.50;99.90;;;;;;5053632;28;20092;-71
2022/12/15 02:56:12;;;;;;;13.07;10.43;;;-1.50;99.90;;;;;;5030236;28;20064;-71
2022/12/15 02:58:50;;;;;;;15.00;10.10;;;-1.50;99.90;;;;;;5007812;28;20908;-71
2022/12/15 03:01:25;;;;;;;14.73;10.88;;;-0.70;99.90;;;;;;5073632;28;20054;-72
2022/12/15 03:03:52;;;;;;;10.70;9.68;;;0.20;99.90;;;;;;5039331;28;20132;-71
2022/12/15 03:06:18;;;;;;;14.15;11.18;;;-1.50;99.90;;;;;;5056027;28;20056;-73
2022/12/15 03:08:44;;;;;;;17.85;11.73;;;-0.10;99.90;;;;;;5048467;28;20437;-72
2022/12/15 03:11:10;;;;;;;14.07;10.00;;;0.00;99.90;;;;;;5051525;28;20556;-72
2022/12/15 03:13:35;;;;;;;16.17;10.55;;;-1.50;99.90;;;;;;5057851;28;20052;-72
2022/12/15 03:16:01;;;;;;;12.63;9.77;;;-0.30;99.90;;;;;;5059379;28;20044;-71
2022/12/15 03:18:27;;;;;;;14.35;11.40;;;-1.50;99.90;;;;;;5047264;28;20105;-70
2022/12/15 03:20:52;;;;;;;14.20;10.68;;;0.00;99.90;;;;;;5047746;28;20040;-72
2022/12/15 03:23:21;;;;;;;12.20;8.98;;;0.00;99.90;;;;;;5047049;28;20049;-72
2022/12/15 03:25:47;;;;;;;13.65;10.77;;;-1.50;99.90;;;;;;5053273;28;20052;-71
2022/12/15 03:28:13;;;;;;;15.65;9.85;;;-0.30;99.90;;;;;;5044009;28;20045;-71
2022/12/15 03:30:38;;;;;;;12.38;9.57;;;-1.60;99.90;;;;;;5051284;28;20071;-71
2022/12/15 03:33:04;;;;;;;12.40;8.95;;;-1.50;99.90;;;;;;5041081;28;20041;-70
2022/12/15 03:35:32;;;;;;;16.00;12.20;;;-1.50;99.90;;;;;;5050712;28;20127;-71
2022/12/15 03:37:58;;;;;;;14.43;10.25;;;0.10;99.90;;;;;;5057826;28;20052;-72
2022/12/15 03:40:24;;;;;;;14.73;9.80;;;0.00;99.90;;;;;;5059973;28;20052;-72
2022/12/15 03:42:49;;;;;;;12.48;10.10;;;-1.50;99.90;;;;;;5049236;28;20045;-72
2022/12/15 03:45:20;;;;;;;11.07;9.48;;;-0.10;99.90;;;;;;5057257;28;20054;-72
2022/12/15 03:47:47;;;;;;;11.73;10.52;;;-1.60;99.90;;;;;;5048611;28;20147;-71
2022/12/15 03:50:15;;;;;;;10.77;8.73;;;-1.60;99.90;;;;;;5047155;28;20520;-72
2022/12/15 03:52:41;;;;;;;15.68;10.57;;;-1.60;99.90;;;;;;5054075;28;20051;-72
2022/12/15 03:55:08;;;;;;;15.05;9.82;;;-1.60;99.90;;;;;;5060472;28;20090;-71
2022/12/15 03:57:34;;;;;;;15.52;10.95;;;-1.60;99.90;;;;;;5053435;28;20044;-71
2022/12/15 04:00:00;;;;;;;12.88;9.57;;;-0.80;99.90;;;;;;5050282;28;20044;-72
2022/12/15 04:02:26;;;;;;;14.65;11.52;;;-1.60;99.90;;;;;;5060847;28;20052;-71
2022/12/15 04:04:51;;;;;;;18.70;11.18;;;-1.60;99.90;;;;;;5051606;28;20095;-72
2022/12/15 04:07:17;;;;;;;11.68;8.85;;;-0.80;99.90;;;;;;5056865;28;20110;-73
2022/12/15 04:09:42;;;;;;;15.65;10.45;;;-0.50;99.90;;;;;;5054817;28;20094;-71
2022/12/15 04:12:10;;;;;;;12.48;10.13;;;-0.30;99.90;;;;;;5044685;28;20040;-72
2022/12/15 04:14:41;;;;;;;13.00;9.75;;;-1.60;99.90;;;;;;5052704;28;20404;-71
2022/12/15 04:17:10;;;;;;;11.85;9.18;;;-0.80;99.90;;;;;;5042930;28;20886;-72
2022/12/15 04:22:20;;;;;;;13.30;9.60;;;-1.70;99.90;;;;;;5067374;28;20099;-71
2022/12/15 05:33:21;;;;;;;11.23;7.43;;;-1.80;99.90;;;;;;5038397;28;20053;-72
2022/12/15 05:35:46;;;;;;;10.05;8.52;;;-1.80;99.90;;;;;;5035743;28;20053;-72
2022/12/15 05:38:12;;;;;;;12.70;9.38;;;-1.80;99.90;;;;;;5050739;28;20053;-72
2022/12/15 05:40:38;;;;;;;11.18;9.60;;;-1.80;99.90;;;;;;5048061;28;20068;-71
2022/12/15 05:43:03;;;;;;;12.00;8.98;;;0.00;99.90;;;;;;5049167;28;20061;-70
2022/12/15 05:45:29;;;;;;;11.32;9.23;;;-1.80;99.90;;;;;;5049054;28;20134;-71
2022/12/15 05:47:55;;;;;;;11.90;9.38;;;-0.50;99.90;;;;;;5038819;28;20100;-71
2022/12/15 05:50:21;;;;;;;13.90;9.75;;;-1.80;99.90;;;;;;5050189;28;20114;-71
2022/12/15 05:52:48;;;;;;;12.90;8.95;;;-1.70;99.90;;;;;;5036329;28;20792;-72
2022/12/15 05:55:15;;;;;;;12.00;9.35;;;-1.70;99.90;;;;;;5046482;28;20912;-71
2022/12/15 05:57:40;;;;;;;13.32;9.57;;;-1.80;99.90;;;;;;5043427;28;20080;-71
2022/12/15 06:00:07;;;;;;;9.98;8.55;;;-1.70;99.90;;;;;;5047194;28;20070;-71
2022/12/15 06:02:32;;;;;;;12.02;9.02;;;-1.70;99.90;;;;;;5042362;28;20080;-71
2022/12/15 06:04:58;;;;;;;10.65;8.88;;;-1.70;99.90;;;;;;5037634;28;20132;-71
2022/12/15 06:07:24;;;;;;;12.20;9.23;;;-1.70;99.90;;;;;;5057178;28;20049;-71
2022/12/15 06:09:50;;;;;;;9.68;7.55;;;-0.30;99.90;;;;;;5042237;28;20052;-71
2022/12/15 06:12:16;;;;;;;9.68;8.32;;;-1.70;99.90;;;;;;5036268;28;20053;-72
2022/12/15 06:14:41;;;;;;;11.27;8.88;;;-1.70;99.90;;;;;;5051726;28;20044;-70
2022/12/15 06:17:07;;;;;;;12.90;9.30;;;-0.30;99.90;;;;;;5054123;28;20045;-73
2022/12/15 06:19:33;;;;;;;10.65;8.75;;;-1.60;99.90;;;;;;5043859;28;20809;-71
2022/12/15 06:21:58;;;;;;;13.68;9.18;;;-0.70;99.90;;;;;;5050701;28;20119;-70
2022/12/15 06:24:24;;;;;;;11.75;8.70;;;-0.40;99.90;;;;;;5045817;28;20175;-73
2022/12/15 06:26:50;;;;;;;15.15;9.85;;;-1.60;99.90;;;;;;5041240;28;20053;-72
2022/12/15 06:29:17;;;;;;;9.75;7.93;;;-1.50;99.90;;;;;;5046487;28;20099;-73
2022/12/15 06:31:43;;;;;;;16.30;9.23;;;-1.00;99.90;;;;;;5057295;28;20817;-73
2022/12/15 06:34:14;;;;;;;9.82;7.90;;;-0.10;99.90;;;;;;5053747;28;20053;-72
2022/12/15 06:36:40;;;;;;;10.23;7.55;;;-1.40;99.90;;;;;;5048329;28;20312;-71
2022/12/15 06:39:09;;;;;;;9.88;7.90;;;-1.30;99.90;;;;;;5052416;28;20040;-72
2022/12/15 06:41:35;;;;;;;9.85;8.00;;;-1.30;99.90;;;;;;5058825;28;20428;-72
2022/12/15 06:44:01;;;;;;;12.15;8.43;;;-1.20;99.90;;;;;;5055342;28;20056;-71
2022/12/15 06:46:29;;;;;;;8.50;7.50;;;0.20;99.90;;;;;;5054030;28;20047;-72
2022/12/15 06:48:56;;;;;;;12.43;7.82;;;-0.30;99.90;;;;;;5050969;28;20074;-72
2022/12/15 06:51:22;;;;;;;10.15;8.25;;;0.70;99.90;;;;;;5058541;28;20245;-72
2022/12/15 06:53:48;;;;;;;11.25;7.50;;;-1.00;99.90;;;;;;5058038;28;20269;-74
2022/12/15 06:56:22;;;;;;;10.27;7.43;;;-1.00;99.90;;;;;;5056065;28;20934;-71
2022/12/15 06:58:50;;;;;;;11.45;7.53;;;0.40;99.90;;;;;;5049415;28;20048;-73
2022/12/15 07:01:17;;;;;;;14.02;8.10;;;0.50;99.90;;;;;;5058238;28;20603;-72
2022/12/15 07:03:43;;;;;;;7.65;6.57;;;-1.00;99.90;;;;;;5052202;28;20128;-72
2022/12/15 07:06:11;;;;;;;9.85;7.53;;;0.40;99.90;;;;;;5059299;28;20123;-72
2022/12/15 07:08:37;;;;;;;9.98;7.20;;;-1.00;99.90;;;;;;5048333;28;20040;-71
2022/12/15 07:11:04;;;;;;;11.57;7.53;;;-0.40;99.90;;;;;;5043568;28;20489;-72
2022/12/15 07:13:29;;;;;;;9.75;7.20;;;-1.10;99.90;;;;;;5044906;28;20045;-71
2022/12/15 07:15:59;;;;;;;8.88;7.03;;;-0.40;99.90;;;;;;5045315;28;20052;-72
2022/12/15 07:18:25;;;;;;;8.77;6.63;;;-1.10;99.90;;;;;;5045382;28;20662;-72
2022/12/15 07:20:51;;;;;;;9.18;6.65;;;-0.90;99.90;;;;;;5056951;28;20040;-72
2022/12/15 07:23:17;;;;;;;7.28;6.35;;;-1.10;99.90;;;;;;5048062;28;20981;-72
2022/12/15 07:25:43;;;;;;;8.60;6.55;;;-0.50;99.90;;;;;;5047549;28;20059;-72
2022/12/15 07:28:08;;;;;;;8.18;6.85;;;-1.10;99.90;;;;;;5051058;28;20048;-72
2022/12/15 07:30:35;;;;;;;8.15;6.47;;;-1.00;99.90;;;;;;5055911;28;20660;-71
2022/12/15 07:33:01;;;;;;;8.93;6.43;;;-0.20;99.90;;;;;;5051144;28;20051;-72
2022/12/15 07:35:27;;;;;;;8.75;6.88;;;-1.10;99.90;;;;;;5055210;28;20769;-72
2022/12/15 07:37:52;;;;;;;11.43;7.47;;;-1.10;99.90;;;;;;5015204;28;20056;-72
2022/12/15 07:40:18;;;;;;;10.75;7.07;;;-1.20;99.90;;;;;;5047869;28;20045;-74
2022/12/15 07:42:44;;;;;;;11.70;8.40;;;-1.20;99.90;;;;;;5039721;28;20129;-74
2022/12/15 07:45:10;;;;;;;9.80;7.55;;;-0.50;99.90;;;;;;5037822;28;20103;-75
2022/12/15 07:47:36;;;;;;;12.57;8.30;;;-1.30;99.90;;;;;;5040275;28;20045;-73
2022/12/15 07:50:02;;;;;;;9.40;7.70;;;-0.90;99.90;;;;;;5051154;28;20052;-73
2022/12/15 07:52:29;;;;;;;12.68;10.38;;;-1.20;99.90;;;;;;5048631;28;20084;-74
2022/12/15 07:54:55;;;;;;;17.27;9.43;;;-1.30;99.90;;;;;;5049888;28;20052;-73
2022/12/15 07:57:21;;;;;;;12.65;8.73;;;-1.30;99.90;;;;;;5041555;28;20056;-73
2022/12/15 07:59:47;;;;;;;8.90;6.93;;;-1.30;99.90;;;;;;5043907;28;20037;-72
2022/12/15 08:02:13;;;;;;;14.32;8.70;;;-1.30;99.90;;;;;;5044443;28;20040;-72
2022/12/15 08:04:39;;;;;;;10.98;8.70;;;-1.30;99.90;;;;;;5060896;28;20413;-71
2022/12/15 08:07:05;;;;;;;13.82;8.25;;;-1.30;99.90;;;;;;5043305;28;20048;-71
2022/12/15 08:09:31;;;;;;;14.50;9.43;;;-1.30;99.90;;;;;;5043343;28;20048;-73
2022/12/15 08:11:57;;;;;;;10.23;7.78;;;-1.30;99.90;;;;;;5043340;28;20045;-72
2022/12/15 08:14:23;;;;;;;10.95;8.60;;;-1.30;99.90;;;;;;5040951;28;20135;-71
2022/12/15 08:16:48;;;;;;;11.68;8.88;;;-0.40;99.90;;;;;;5055136;28;20065;-71
2022/12/15 08:19:16;;;;;;;10.20;7.97;;;-1.20;99.90;;;;;;5044412;28;20037;-72
2022/12/15 08:21:44;;;;;;;13.48;9.45;;;0.30;99.90;;;;;;5049528;28;20409;-71
2022/12/15 08:24:10;;;;;;;11.40;9.82;;;-1.20;99.90;;;;;;5042418;28;20643;-71
2022/12/15 08:26:37;;;;;;;9.02;8.18;;;-1.10;99.90;;;;;;5047395;28;20156;-70
2022/12/15 08:29:06;;;;;;;11.63;8.10;;;-1.10;99.90;;;;;;5053089;28;20382;-71
2022/12/15 08:31:32;;;;;;;8.60;7.70;;;-0.20;99.90;;;;;;5055194;28;20491;-71
2022/12/15 08:34:04;;;;;;;10.15;9.02;;;-1.00;99.90;;;;;;5052939;28;20045;-70
2022/12/15 08:36:30;;;;;;;12.23;8.68;;;-0.80;99.90;;;;;;5051703;28;20412;-72
2022/12/15 08:38:58;;;;;;;8.45;7.57;;;0.90;99.90;;;;;;5044123;28;20170;-70
2022/12/15 08:41:28;;;;;;;11.40;8.05;;;-1.00;99.90;;;;;;5048085;28;20126;-71
2022/12/15 08:43:55;;;;;;;10.30;7.90;;;-0.90;99.90;;;;;;5045829;28;20131;-71
2022/12/15 08:46:27;;;;;;;12.55;7.60;;;-0.90;99.90;;;;;;5046911;28;20053;-71
2022/12/15 08:48:52;;;;;;;10.88;8.48;;;-0.90;99.90;;;;;;5050462;28;20115;-71
2022/12/15 08:51:20;;;;;;;11.38;8.57;;;0.70;99.90;;;;;;5039322;28;20745;-72
2022/12/15 08:53:45;;;;;;;13.85;8.27;;;-0.80;99.90;;;;;;5045845;28;20137;-70
2022/12/15 08:56:17;;;;;;;12.38;8.70;;;0.40;99.90;;;;;;5042929;28;20049;-70
2022/12/15 08:58:43;;;;;;;11.32;8.88;;;0.90;99.90;;;;;;5041384;28;20373;-71
2022/12/15 09:01:19;;;;;;;11.55;9.00;;;-0.60;99.90;;;;;;5041340;28;20840;-71
2022/12/15 09:03:45;;;;;;;12.70;9.50;;;-0.60;99.90;;;;;;5039105;28;20057;-73
2022/12/15 09:06:23;;;;;;;10.43;8.68;;;-0.60;99.90;;;;;;5074260;28;20106;-71
2022/12/15 09:08:49;;;;;;;11.77;9.20;;;-0.50;99.90;;;;;;5043464;28;20044;-71
2022/12/15 09:11:14;;;;;;;13.50;9.48;;;-0.30;99.90;;;;;;5041697;28;20177;-73
2022/12/15 09:13:40;;;;;;;13.57;8.98;;;-0.30;99.90;;;;;;5038469;28;20653;-72
2022/12/15 09:16:12;;;;;;;13.30;9.35;;;0.50;99.90;;;;;;5039631;28;20724;-72
2022/12/15 09:18:40;;;;;;;12.00;9.38;;;1.10;99.90;;;;;;5043860;28;20153;-71
2022/12/15 09:21:06;;;;;;;13.52;10.43;;;0.40;99.90;;;;;;5041449;28;20731;-71
2022/12/15 09:23:33;;;;;;;14.10;9.20;;;-0.20;99.90;;;;;;5047248;28;20048;-71
2022/12/15 09:26:07;;;;;;;11.68;8.88;;;-0.10;99.90;;;;;;5047214;28;20052;-71
2022/12/15 09:28:33;;;;;;;13.77;10.00;;;-0.10;99.90;;;;;;5049796;28;20048;-71
2022/12/15 09:31:27;;;;;;;10.20;8.80;;;0.00;99.90;;;;;;5049065;28;20893;-72
2022/12/15 09:33:54;;;;;;;;;;;0.40;99.90;;;;;;5038475;28;20088;-70
2022/12/15 09:36:20;;;;;;;14.65;9.70;;;0.10;99.90;;;;;;5053722;28;20010;-71
2022/12/15 09:38:45;;;;;;;11.95;9.90;;;1.00;99.90;;;;;;5053841;28;20051;-70
2022/12/15 09:41:14;;;;;;;12.55;10.27;;;0.30;99.90;;;;;;5043017;28;20045;-71
2022/12/15 09:43:54;;;;;;;15.20;11.95;;;0.40;99.90;;;;;;5047565;28;20045;-72
2022/12/15 09:46:43;;;;;;;10.45;8.60;;;0.50;99.90;;;;;;5053506;28;20118;-72
2022/12/15 09:49:36;;;;;;;12.82;10.05;;;0.60;99.90;;;;;;5044722;28;20072;-71
2022/12/15 09:52:05;;;;;;;11.73;8.52;;;0.60;99.90;;;;;;5049102;28;20053;-71
2022/12/15 09:54:33;;;;;;;16.70;9.85;;;0.60;99.90;;;;;;5042411;28;20897;-71
2022/12/15 09:57:07;;;;;;;12.40;9.35;;;0.70;99.90;;;;;;5049968;28;20048;-72
2022/12/15 09:59:54;;;;;;;11.52;8.45;;;1.20;99.90;;;;;;5041855;28;20157;-73
2022/12/15 10:02:29;;;;;;;12.30;9.70;;;0.90;99.90;;;;;;5047574;28;20106;-71
2022/12/15 10:05:41;;;;;;;10.55;9.00;;;0.90;99.90;;;;;;5044944;28;20052;-72
2022/12/15 10:08:07;;;;;;;11.90;9.77;;;0.90;99.90;;;;;;5043895;28;20414;-72
2022/12/15 10:10:41;;;;;;;11.80;8.80;;;1.10;99.90;;;;;;5041233;28;20044;-71
2022/12/15 10:13:19;;;;;;;13.05;9.57;;;0.90;99.90;;;;;;5057978;28;20055;-73
2022/12/15 10:15:59;;;;;;;11.60;8.98;;;1.00;99.90;;;;;;5055022;28;20060;-73
2022/12/15 10:18:40;;;;;;;13.40;9.32;;;1.00;99.90;;;;;;5043297;28;20125;-71
2022/12/15 10:21:13;;;;;;;16.05;9.27;;;1.00;99.90;;;;;;5036510;28;20130;-71
2022/12/15 10:23:39;;;;;;;13.98;9.23;;;1.00;99.90;;;;;;5054173;28;20045;-71
2022/12/15 10:26:30;;;;;;;12.32;9.13;;;1.80;99.90;;;;;;5043298;28;20244;-71
2022/12/15 10:29:15;;;;;;;16.40;9.20;;;1.20;99.90;;;;;;5035443;28;20044;-71
2022/12/15 10:32:04;;;;;;;12.13;9.40;;;1.20;99.90;;;;;;5039751;28;20044;-71
2022/12/15 10:34:36;;;;;;;10.90;8.20;;;1.20;99.90;;;;;;5046469;28;20057;-72
2022/12/15 10:37:02;;;;;;;9.18;7.97;;;1.30;99.90;;;;;;5044329;28;20053;-72
2022/12/15 10:39:40;;;;;;;15.55;9.27;;;1.40;99.90;;;;;;5044000;28;20051;-71
2022/12/15 10:42:12;;;;;;;11.00;8.57;;;1.70;99.90;;;;;;5039891;28;20052;-71
2022/12/15 10:44:40;;;;;;;16.08;9.30;;;1.50;99.90;;;;;;5042813;28;20049;-72
2022/12/15 10:47:28;;;;;;;13.05;9.07;;;1.60;99.90;;;;;;5048054;28;20706;-71
2022/12/15 10:50:14;;;;;;;12.38;9.02;;;1.60;99.90;;;;;;5045357;28;20033;-70
2022/12/15 10:52:40;;;;;;;12.95;8.65;;;2.50;99.90;;;;;;5038563;28;20564;-72
2022/12/15 10:55:35;;;;;;;10.88;8.10;;;1.70;99.90;;;;;;5040103;28;20051;-70
2022/12/15 10:58:03;;;;;;;13.57;9.82;;;1.80;99.90;;;;;;5044711;28;20508;-70
2022/12/15 11:00:32;;;;;;;12.30;8.13;;;2.00;99.90;;;;;;5043484;28;20056;-69
2022/12/15 11:02:58;;;;;;;12.60;7.95;;;1.90;99.90;;;;;;5045060;28;20647;-71
2022/12/15 11:05:25;;;;;;;17.17;7.85;;;2.30;99.90;;;;;;5046814;28;20094;-71
2022/12/15 11:08:15;;;;;;;11.85;8.52;;;2.00;99.90;;;;;;5058773;28;20521;-71
2022/12/15 11:13:37;;;;;;;11.15;7.38;;;2.10;99.90;;;;;;5040432;28;20103;-71
2022/12/15 11:16:17;;;;;;;9.50;7.72;;;2.10;99.90;;;;;;5038376;28;20060;-69
2022/12/15 11:19:15;;;;;;;11.98;8.63;;;2.30;99.90;;;;;;5041100;28;20045;-70
2022/12/15 11:21:47;;;;;;;11.75;8.32;;;2.20;99.90;;;;;;5035535;28;20133;-73
2022/12/15 11:24:15;;;;;;;10.05;8.02;;;2.20;99.90;;;;;;5054896;28;20698;-73
2022/12/15 11:26:50;;;;;;;13.30;8.90;;;2.30;99.90;;;;;;5037568;28;20079;-72
2022/12/15 11:29:44;;;;;;;11.82;7.88;;;2.20;99.90;;;;;;5039249;28;20088;-73
2022/12/15 11:32:11;;;;;;;8.90;8.00;;;2.20;99.90;;;;;;5049750;28;20075;-71
2022/12/15 11:34:46;;;;;;;9.48;8.07;;;3.20;99.90;;;;;;5042537;28;20040;-70
2022/12/15 11:37:27;;;;;;;10.93;8.77;;;3.00;99.90;;;;;;5056248;28;20151;-71
2022/12/15 11:40:31;;;;;;;13.85;8.73;;;2.20;99.90;;;;;;5041991;28;20061;-71
2022/12/15 11:43:02;;;;;;;8.80;7.85;;;2.20;99.90;;;;;;5045436;28;20052;-71
2022/12/15 11:45:39;;;;;;;9.77;8.07;;;2.20;99.90;;;;;;5049076;28;20377;-70
2022/12/15 11:48:13;;;;;;;10.10;8.27;;;2.30;99.90;;;;;;5041022;28;20052;-71
2022/12/15 11:50:46;;;;;;;;;;;2.30;99.90;;;;;;5043375;28;20092;-70
2022/12/15 11:53:30;;;;;;;12.30;8.60;;;2.60;99.90;;;;;;5044492;28;20444;-71
2022/12/15 11:56:09;;;;;;;9.00;7.97;;;2.90;99.90;;;;;;5040400;28;20060;-70
2022/12/15 11:58:42;;;;;;;11.13;8.25;;;2.30;99.90;;;;;;5050513;28;20040;-71
2022/12/15 12:01:15;;;;;;;11.82;7.97;;;2.90;99.90;;;;;;5049430;28;20045;-71
2022/12/15 12:04:21;;;;;;;10.68;7.95;;;2.40;99.90;;;;;;5044503;28;20043;-71
2022/12/15 12:07:06;;;;;;;9.98;7.45;;;2.40;99.90;;;;;;5050256;28;20791;-70
2022/12/15 12:09:39;;;;;;;11.82;7.60;;;3.10;99.90;;;;;;5044753;28;20083;-71
2022/12/15 12:12:23;;;;;;;8.30;7.47;;;2.50;99.90;;;;;;5038172;28;20048;-71
2022/12/15 12:15:07;;;;;;;;;;;2.60;99.90;;;;;;5039336;28;20155;-71
2022/12/15 12:17:54;;;;;;;12.55;7.03;;;2.60;99.90;;;;;;5051887;28;19924;-70
2022/12/15 12:20:25;;;;;;;8.50;6.60;;;2.70;99.90;;;;;;5048286;28;20044;-71
2022/12/15 12:23:12;;;;;;;10.98;7.00;;;2.80;99.90;;;;;;5046148;28;20079;-71
2022/12/15 12:25:46;;;;;;;11.82;6.85;;;2.90;99.90;;;;;;5038087;28;20051;-71
2022/12/15 12:28:23;;;;;;;10.70;6.85;;;2.90;99.90;;;;;;5045367;28;20052;-72
2022/12/15 12:30:50;;;;;;;12.35;7.18;;;3.00;99.90;;;;;;5052757;28;20053;-70
2022/12/15 12:33:18;;;;;;;8.65;6.55;;;3.00;99.90;;;;;;5046603;28;20060;-71
2022/12/15 12:36:11;;;;;;;11.02;6.90;;;3.20;99.90;;;;;;5041608;28;20820;-71
2022/12/15 12:38:45;;;;;;;8.80;6.07;;;3.10;99.90;;;;;;5039347;28;20041;-71
2022/12/15 12:41:15;;;;;;;;;;;3.20;99.90;;;;;;5041883;28;20037;-70
2022/12/15 12:44:06;;;;;;;11.60;6.25;;;3.40;99.90;;;;;;5053231;28;20031;-72
2022/12/15 12:46:45;;;;;;;9.80;6.60;;;3.20;99.90;;;;;;5037923;28;20128;-71
2022/12/15 12:49:19;;;;;;;10.20;6.88;;;3.20;99.90;;;;;;5046609;28;20053;-71
2022/12/15 12:51:52;;;;;;;10.65;6.88;;;3.20;99.90;;;;;;5046892;28;20469;-70
2022/12/15 12:54:35;;;;;;;9.00;6.63;;;4.10;99.90;;;;;;5044438;28;20076;-70
2022/12/15 12:57:40;;;;;;;8.40;6.43;;;3.20;99.90;;;;;;5045093;28;20101;-71
2022/12/15 13:00:17;;;;;;;8.30;7.25;;;3.20;99.90;;;;;;5049453;28;20050;-71
2022/12/15 13:02:48;;;;;;;10.52;6.88;;;3.10;99.90;;;;;;5038344;28;20052;-69
2022/12/15 13:05:33;;;;;;;13.45;7.55;;;3.40;99.90;;;;;;5037351;28;20107;-71
2022/12/15 13:08:04;;;;;;;13.48;6.63;;;3.10;99.90;;;;;;5047963;28;20068;-71
2022/12/15 13:10:42;;;;;;;9.20;8.32;;;3.10;99.90;;;;;;5046096;28;20057;-70
2022/12/15 13:13:30;;;;;;;13.55;6.97;;;3.00;99.90;;;;;;5048618;28;20060;-71
2022/12/15 13:16:10;;;;;;;11.52;7.47;;;3.00;99.90;;;;;;5037221;28;20053;-70
2022/12/15 13:19:03;;;;;;;10.50;8.55;;;3.00;99.90;;;;;;5041206;28;20086;-70
2022/12/15 13:21:41;;;;;;;8.52;7.55;;;3.00;99.90;;;;;;5041455;28;20048;-68
2022/12/15 13:24:29;;;;;;;10.00;7.07;;;4.20;99.90;;;;;;5048858;28;20912;-70
2022/12/15 13:27:07;;;;;;;10.43;7.38;;;2.90;99.90;;;;;;5044716;28;20119;-70
2022/12/15 13:29:34;;;;;;;10.15;7.05;;;3.80;99.90;;;;;;5036713;28;20053;-71
2022/12/15 13:31:59;;;;;;;13.60;7.90;;;2.90;99.90;;;;;;5036998;28;20053;-71
2022/12/15 13:34:28;;;;;;;11.90;7.22;;;3.00;99.90;;;;;;5047482;28;20056;-70
2022/12/15 13:36:55;;;;;;;7.55;6.82;;;3.00;99.90;;;;;;5041011;28;20049;-72
2022/12/15 13:39:21;;;;;;;8.52;6.88;;;2.90;99.90;;;;;;5041217;28;20049;-71
2022/12/15 13:41:53;;;;;;;10.02;7.07;;;2.90;99.90;;;;;;5036208;28;20056;-70
2022/12/15 13:44:34;;;;;;;12.43;8.60;;;3.20;99.90;;;;;;5046417;28;20306;-70
2022/12/15 13:47:24;;;;;;;9.48;7.57;;;2.90;99.90;;;;;;5046945;28;20079;-71
2022/12/15 13:50:02;;;;;;;15.05;7.70;;;2.90;99.90;;;;;;5037768;28;20044;-71
2022/12/15 13:52:54;;;;;;;15.77;8.48;;;2.90;99.90;;;;;;5046022;28;20064;-71
2022/12/15 13:55:28;;;;;;;9.73;7.53;;;2.90;99.90;;;;;;5038406;28;20052;-72
2022/12/15 13:57:59;;;;;;;11.73;8.40;;;3.60;99.90;;;;;;5048317;28;20119;-71
2022/12/15 14:00:25;;;;;;;10.05;6.75;;;2.10;99.90;;;;;;5042643;28;20461;-69
2022/12/15 14:03:02;;;;;;;10.93;7.95;;;2.90;99.90;;;;;;5055440;28;20045;-70
2022/12/15 14:05:27;;;;;;;12.70;7.68;;;2.80;99.90;;;;;;5036743;28;20997;-70
2022/12/15 14:07:53;;;;;;;11.52;7.85;;;2.90;99.90;;;;;;5036640;28;20044;-72
2022/12/15 14:10:46;;;;;;;13.60;9.10;;;2.80;99.90;;;;;;5038049;28;20698;-69
2022/12/15 14:13:35;;;;;;;12.23;7.57;;;2.80;99.90;;;;;;5048306;28;20102;-71
2022/12/15 14:16:14;;;;;;;10.45;7.32;;;3.00;99.90;;;;;;5048469;28;20044;-71
2022/12/15 14:18:43;;;;;;;15.50;8.98;;;2.80;99.90;;;;;;5052195;28;20800;-70
2022/12/15 14:21:21;;;;;;;14.43;8.52;;;3.50;99.90;;;;;;5048850;28;20165;-69
2022/12/15 14:23:48;;;;;;;10.48;8.05;;;2.70;99.90;;;;;;5043534;28;20045;-71
2022/12/15 14:26:15;;;;;;;11.77;8.02;;;3.50;99.90;;;;;;5055348;28;20063;-70
2022/12/15 14:28:46;;;;;;;9.52;7.45;;;2.70;99.90;;;;;;5049920;28;20041;-72
2022/12/15 14:31:19;;;;;;;10.35;7.68;;;3.50;99.90;;;;;;5037151;28;20128;-70
2022/12/15 14:33:49;;;;;;;11.35;8.25;;;3.20;99.90;;;;;;5039363;28;20048;-71
2022/12/15 14:36:17;;;;;;;12.48;7.97;;;2.70;99.90;;;;;;5038893;28;20045;-70
2022/12/15 14:38:50;;;;;;;13.38;8.20;;;2.70;99.90;;;;;;5040846;28;20079;-71
2022/12/15 14:41:23;;;;;;;11.52;8.48;;;2.70;99.90;;;;;;5047204;28;20048;-70
2022/12/15 14:43:51;;;;;;;10.50;9.18;;;2.70;99.90;;;;;;5054685;28;20055;-72
2022/12/15 14:46:21;;;;;;;10.63;8.55;;;3.10;99.90;;;;;;5058808;28;20056;-70
2022/12/15 14:48:59;;;;;;;10.23;8.93;;;2.70;99.90;;;;;;5053663;28;20056;-71
2022/12/15 14:51:27;;;;;;;11.00;8.73;;;2.70;99.90;;;;;;5046896;28;20433;-69
2022/12/15 14:53:53;;;;;;;14.80;8.70;;;2.60;99.90;;;;;;5044336;28;20052;-70
2022/12/15 14:56:19;;;;;;;11.38;8.77;;;2.60;99.90;;;;;;5038627;28;20059;-71
2022/12/15 14:58:58;;;;;;;12.35;8.88;;;3.00;99.90;;;;;;5040548;28;20150;-73
2022/12/15 15:01:28;;;;;;;12.55;8.63;;;2.90;99.90;;;;;;5042473;28;20080;-69
2022/12/15 15:04:02;;;;;;;10.73;8.15;;;2.70;99.90;;;;;;5040224;28;20508;-71
2022/12/15 15:06:37;;;;;;;11.40;9.75;;;2.60;99.90;;;;;;5043791;28;20372;-69
2022/12/15 15:09:25;;;;;;;11.07;8.43;;;2.60;99.90;;;;;;5046833;28;20565;-71
2022/12/15 15:12:03;;;;;;;11.52;8.80;;;2.60;99.90;;;;;;5038409;28;20041;-71
2022/12/15 15:14:41;;;;;;;11.20;9.18;;;2.50;99.90;;;;;;5038136;28;20049;-69
2022/12/15 15:17:12;;;;;;;14.60;9.05;;;2.50;99.90;;;;;;5045765;28;20091;-71
2022/12/15 15:19:46;;;;;;;11.60;9.07;;;2.60;99.90;;;;;;5048615;28;20052;-71
2022/12/15 15:22:39;;;;;;;10.80;8.32;;;2.40;99.90;;;;;;5049395;28;20044;-70
2022/12/15 15:25:26;;;;;;;14.73;9.27;;;2.30;99.90;;;;;;5043319;28;20107;-69
2022/12/15 15:27:52;;;;;;;12.82;9.48;;;2.30;99.90;;;;;;5039008;28;20052;-71
2022/12/15 15:30:22;;;;;;;14.27;10.40;;;2.30;99.90;;;;;;5046679;28;20052;-69
2022/12/15 15:32:49;;;;;;;11.90;9.30;;;2.40;99.90;;;;;;5039427;28;20063;-73
2022/12/15 15:35:15;;;;;;;12.70;10.23;;;2.50;99.90;;;;;;5035701;28;20156;-68
2022/12/15 15:37:41;;;;;;;12.73;9.25;;;2.80;99.90;;;;;;5050595;28;20048;-73
2022/12/15 15:40:11;;;;;;;13.80;11.23;;;2.40;99.90;;;;;;5048851;28;20040;-70